createdAt,value
2019-02-15T00:00:42.464Z,1.31
2019-02-15T00:01:42.975Z,1.23
2019-02-15T00:02:42.467Z,1.16
2019-02-15T00:03:42.865Z,1.30
2019-02-15T00:04:42.759Z,1.28
2019-02-15T00:05:42.653Z,1.34
2019-02-15T00:07:42.854Z,1.22
2019-02-15T00:08:42.626Z,1.32
2019-02-15T00:09:42.420Z,1.34
2019-02-15T00:10:42.404Z,1.34
2019-02-15T00:11:43.109Z,1.38
2019-02-15T00:12:42.807Z,1.38
2019-02-15T00:13:43.385Z,1.45
2019-02-15T00:15:42.360Z,1.59
2019-02-15T00:16:42.361Z,1.62
2019-02-15T00:17:42.569Z,1.68
2019-02-15T00:18:42.333Z,1.66
2019-02-15T00:19:42.539Z,1.74
2019-02-15T00:20:42.537Z,1.80
2019-02-15T00:21:42.728Z,1.84
2019-02-15T00:22:42.333Z,1.91
2019-02-15T00:25:43.925Z,2.04
2019-02-15T00:27:42.293Z,2.18
2019-02-15T00:28:42.920Z,2.14
2019-02-15T00:29:42.478Z,2.22
2019-02-15T00:32:42.766Z,2.26
2019-02-15T00:33:42.675Z,2.42
2019-02-15T00:34:42.981Z,2.32
2019-02-15T00:35:42.659Z,2.50
2019-02-15T00:36:42.219Z,2.43
2019-02-15T00:38:42.824Z,2.64
2019-02-15T00:39:42.419Z,2.65
2019-02-15T00:40:42.199Z,2.71
2019-02-15T00:43:42.399Z,2.85
2019-02-15T00:45:42.189Z,2.92
2019-02-15T00:46:42.382Z,2.93
2019-02-15T00:47:42.582Z,2.93
2019-02-15T00:49:42.162Z,2.98
2019-02-15T00:50:42.139Z,2.95
2019-02-15T00:51:42.143Z,3.03
2019-02-15T00:52:42.134Z,2.95
2019-02-15T00:53:42.525Z,3.10
2019-02-15T00:54:42.123Z,3.11
2019-02-15T00:55:42.114Z,3.10
2019-02-15T00:57:42.409Z,3.11
2019-02-15T00:58:43.003Z,3.10
2019-02-15T00:59:42.281Z,3.04
2019-02-15T01:00:42.484Z,3.10
2019-02-15T01:01:42.460Z,3.19
2019-02-15T01:02:42.076Z,3.19
2019-02-15T01:03:42.077Z,3.18
2019-02-15T01:04:42.076Z,3.14
2019-02-15T01:05:42.245Z,3.07
2019-02-15T01:06:42.452Z,3.05
2019-02-15T01:08:42.019Z,3.10
2019-02-15T01:09:42.735Z,3.07
2019-02-15T01:10:42.032Z,3.16
2019-02-15T01:11:42.431Z,3.14
2019-02-15T01:12:42.198Z,3.11
2019-02-15T01:13:42.708Z,3.13
2019-02-15T01:14:41.991Z,3.16
2019-02-15T01:15:42.906Z,3.10
2019-02-15T01:16:41.990Z,3.10
2019-02-15T01:19:41.956Z,3.07
2019-02-15T01:20:42.877Z,3.10
2019-02-15T01:22:41.958Z,3.04
2019-02-15T01:25:42.433Z,3.03
2019-02-15T01:26:41.934Z,3.13
2019-02-15T01:28:42.241Z,3.10
2019-02-15T01:29:42.122Z,3.07
2019-02-15T01:31:42.125Z,3.10
2019-02-15T01:32:41.906Z,3.14
2019-02-15T01:35:42.193Z,3.14
2019-02-15T01:36:41.875Z,3.11
2019-02-15T01:37:42.374Z,3.13
2019-02-15T01:38:42.055Z,3.11
2019-02-15T01:39:42.564Z,3.16
2019-02-15T01:40:41.862Z,3.14
2019-02-15T01:42:44.065Z,3.13
2019-02-15T01:43:42.221Z,3.19
2019-02-15T01:46:42.228Z,3.22
2019-02-15T01:48:41.807Z,3.18
2019-02-15T01:49:41.786Z,3.23
2019-02-15T01:51:41.778Z,3.14
2019-02-15T01:53:41.783Z,3.14
2019-02-15T01:57:42.155Z,3.14
2019-02-15T01:58:41.729Z,3.03
2019-02-15T01:59:41.728Z,3.14
2019-02-15T02:00:41.735Z,3.01
2019-02-15T02:01:41.706Z,3.05
2019-02-15T02:02:42.112Z,3.05
2019-02-15T02:03:41.923Z,3.07
2019-02-15T02:04:42.092Z,3.04
2019-02-15T02:07:41.683Z,2.93
2019-02-15T02:08:41.675Z,2.98
2019-02-15T02:10:42.057Z,2.86
2019-02-15T02:11:41.862Z,2.79
2019-02-15T02:13:49.257Z,2.89
2019-02-15T02:15:41.635Z,2.83
2019-02-15T02:16:41.623Z,2.77
2019-02-15T02:17:41.632Z,2.69
2019-02-15T02:18:41.811Z,2.77
2019-02-15T02:20:41.610Z,2.75
2019-02-15T02:21:41.612Z,2.79
2019-02-15T02:22:41.987Z,2.79
2019-02-15T02:24:41.799Z,2.80
2019-02-15T02:25:41.988Z,2.82
2019-02-15T02:27:41.582Z,2.83
2019-02-15T02:28:41.569Z,2.85
2019-02-15T02:30:41.760Z,2.83
2019-02-15T02:31:41.526Z,2.79
2019-02-15T02:34:42.258Z,2.90
2019-02-15T02:35:41.532Z,2.86
2019-02-15T02:36:41.723Z,2.79
2019-02-15T02:37:41.516Z,2.89
2019-02-15T02:39:41.823Z,2.82
2019-02-15T02:40:44.506Z,2.86
2019-02-15T02:41:41.895Z,2.80
2019-02-15T02:43:41.475Z,2.82
2019-02-15T02:44:41.659Z,2.71
2019-02-15T02:45:41.663Z,2.68
2019-02-15T02:46:41.440Z,2.69
2019-02-15T02:47:41.655Z,2.56
2019-02-15T02:48:41.431Z,2.44
2019-02-15T02:49:41.436Z,2.39
2019-02-15T02:50:41.654Z,2.36
2019-02-15T02:51:42.224Z,2.32
2019-02-15T02:53:41.625Z,2.13
2019-02-15T02:54:41.623Z,1.95
2019-02-15T02:55:41.379Z,1.89
2019-02-15T02:56:41.874Z,1.81
2019-02-15T02:58:41.387Z,1.41
2019-02-15T02:59:41.985Z,1.38
2019-02-15T03:00:41.774Z,1.37
2019-02-15T03:01:41.351Z,1.30
2019-02-15T03:02:41.758Z,1.31
2019-02-15T03:03:41.962Z,1.19
2019-02-15T03:04:42.353Z,1.24
2019-02-15T03:06:41.347Z,1.34
2019-02-15T03:07:41.532Z,1.28
2019-02-15T03:08:41.297Z,1.20
2019-02-15T03:09:41.292Z,1.34
2019-02-15T03:10:41.323Z,1.32
2019-02-15T03:11:41.806Z,1.24
2019-02-15T03:13:41.486Z,1.28
2019-02-15T03:14:41.498Z,1.23
2019-02-15T03:16:41.255Z,1.20
2019-02-15T03:17:41.250Z,1.24
2019-02-15T03:18:41.738Z,1.24
2019-02-15T03:19:41.650Z,1.22
2019-02-15T03:20:41.666Z,1.12
2019-02-15T03:21:41.435Z,1.13
2019-02-15T03:22:41.223Z,1.17
2019-02-15T03:23:41.409Z,1.13
2019-02-15T03:24:41.214Z,1.08
2019-02-15T03:25:41.241Z,1.06
2019-02-15T03:27:41.191Z,1.16
2019-02-15T03:28:41.598Z,1.13
2019-02-15T03:29:41.407Z,1.12
2019-02-15T03:30:41.502Z,1.05
2019-02-15T03:31:41.381Z,1.02
2019-02-15T03:32:41.168Z,1.04
2019-02-15T03:34:41.571Z,0.92
2019-02-15T03:36:41.352Z,0.84
2019-02-15T03:37:41.145Z,0.91
2019-02-15T03:38:41.130Z,0.83
2019-02-15T03:39:41.116Z,0.91
2019-02-15T03:40:41.115Z,0.94
2019-02-15T03:41:41.715Z,0.84
2019-02-15T03:43:41.402Z,0.86
2019-02-15T03:44:42.191Z,0.84
2019-02-15T03:45:41.074Z,0.77
2019-02-15T03:47:41.062Z,0.86
2019-02-15T03:49:41.057Z,0.91
2019-02-15T03:50:41.062Z,0.77
2019-02-15T03:51:41.249Z,0.83
2019-02-15T03:52:41.029Z,0.76
2019-02-15T03:53:41.023Z,0.69
2019-02-15T03:54:41.228Z,0.68
2019-02-15T03:57:40.996Z,0.77
2019-02-15T03:58:41.204Z,0.70
2019-02-15T03:59:41.606Z,0.73
2019-02-15T04:00:41.173Z,0.84
2019-02-15T04:01:41.767Z,0.88
2019-02-15T04:02:41.189Z,0.88
2019-02-15T04:04:41.247Z,0.98
2019-02-15T04:05:41.628Z,0.99
2019-02-15T04:06:41.157Z,0.91
2019-02-15T04:09:40.908Z,0.99
2019-02-15T04:10:40.909Z,1.06
2019-02-15T04:11:41.106Z,1.04
2019-02-15T04:12:41.309Z,0.94
2019-02-15T04:14:41.479Z,0.91
2019-02-15T04:17:41.467Z,0.84
2019-02-15T04:18:41.244Z,0.83
2019-02-15T04:19:41.142Z,0.81
2019-02-15T04:20:41.065Z,0.76
2019-02-15T04:21:40.833Z,0.77
2019-02-15T04:23:41.208Z,0.73
2019-02-15T04:24:41.524Z,0.66
2019-02-15T04:25:41.018Z,0.63
2019-02-15T04:28:41.474Z,0.56
2019-02-15T04:29:40.773Z,0.41
2019-02-15T04:30:40.775Z,0.50
2019-02-15T04:32:40.993Z,0.41
2019-02-15T04:33:40.767Z,0.37
2019-02-15T04:34:40.757Z,0.47
2019-02-15T04:35:41.348Z,0.34
2019-02-15T04:37:41.408Z,0.40
2019-02-15T04:38:40.921Z,0.40
2019-02-15T04:40:40.695Z,0.49
2019-02-15T04:42:40.698Z,0.56
2019-02-15T04:43:40.873Z,0.56
2019-02-15T04:45:40.893Z,0.52
2019-02-15T04:46:40.663Z,0.46
2019-02-15T04:47:40.666Z,0.39
2019-02-15T04:48:40.844Z,0.40
2019-02-15T04:52:41.437Z,0.34
2019-02-15T04:53:40.616Z,0.28
2019-02-15T04:54:40.993Z,0.28
2019-02-15T04:55:40.608Z,0.31
2019-02-15T04:56:41.113Z,0.16
2019-02-15T04:57:40.781Z,0.18
2019-02-15T04:59:40.771Z,0.00
2019-02-15T05:00:40.963Z,0.05
2019-02-15T05:02:41.458Z,-0.07
2019-02-15T05:04:40.539Z,-0.06
2019-02-15T05:05:42.038Z,0.00
2019-02-15T05:06:40.509Z,0.03
2019-02-15T05:07:40.521Z,0.10
2019-02-15T05:09:40.803Z,0.19
2019-02-15T05:10:40.555Z,0.19
2019-02-15T05:11:40.470Z,0.23
2019-02-15T05:12:40.472Z,0.18
2019-02-15T05:13:40.485Z,0.22
2019-02-15T05:16:40.471Z,0.23
2019-02-15T05:18:40.595Z,0.19
2019-02-15T05:19:40.457Z,0.08
2019-02-15T05:22:40.830Z,0.15
2019-02-15T05:24:40.405Z,0.18
2019-02-15T05:25:40.585Z,0.23
2019-02-15T05:26:40.987Z,0.23
2019-02-15T05:27:40.371Z,0.29
2019-02-15T05:28:40.359Z,0.23
2019-02-15T05:30:40.353Z,0.36
2019-02-15T05:31:40.559Z,0.31
2019-02-15T05:33:40.328Z,0.25
2019-02-15T05:34:40.630Z,0.25
2019-02-15T05:35:40.330Z,0.19
2019-02-15T05:36:40.324Z,0.21
2019-02-15T05:37:40.299Z,0.19
2019-02-15T05:38:41.353Z,0.25
2019-02-15T05:40:40.584Z,0.25
2019-02-15T05:41:40.979Z,0.19
2019-02-15T05:42:40.278Z,0.23
2019-02-15T05:43:40.462Z,0.19
2019-02-15T05:44:40.235Z,0.18
2019-02-15T05:45:40.753Z,0.28
2019-02-15T05:46:40.230Z,0.32
2019-02-15T05:47:40.948Z,0.21
2019-02-15T05:48:40.422Z,0.31
2019-02-15T05:49:41.017Z,0.31
2019-02-15T05:52:41.318Z,0.29
2019-02-15T05:53:40.174Z,0.34
2019-02-15T05:54:40.193Z,0.31
2019-02-15T05:56:40.477Z,0.37
2019-02-15T05:58:40.463Z,0.44
2019-02-15T05:59:40.357Z,0.43
2019-02-15T06:00:40.357Z,0.50
2019-02-15T06:01:40.376Z,0.59
2019-02-15T06:05:40.102Z,0.36
2019-02-15T06:07:40.295Z,0.39
2019-02-15T06:08:40.079Z,0.31
2019-02-15T06:10:40.058Z,0.29
2019-02-15T06:11:40.257Z,0.16
2019-02-15T06:12:40.064Z,0.25
2019-02-15T06:14:40.126Z,0.21
2019-02-15T06:16:40.042Z,0.15
2019-02-15T06:17:40.219Z,0.21
2019-02-15T06:18:40.632Z,0.23
2019-02-15T06:19:40.002Z,0.21
2019-02-15T06:20:40.190Z,0.25
2019-02-15T06:21:40.005Z,0.16
2019-02-15T06:22:39.979Z,0.21
2019-02-15T06:23:39.968Z,0.21
2019-02-15T06:24:39.969Z,0.23
2019-02-15T06:26:39.953Z,0.18
2019-02-15T06:27:40.154Z,0.16
2019-02-15T06:28:39.940Z,0.16
2019-02-15T06:29:40.141Z,0.26
2019-02-15T06:30:40.423Z,0.36
2019-02-15T06:31:40.121Z,0.32
2019-02-15T06:32:40.113Z,0.29
2019-02-15T06:35:40.272Z,0.43
2019-02-15T06:36:39.886Z,0.40
2019-02-15T06:37:39.889Z,0.37
2019-02-15T06:38:40.068Z,0.34
2019-02-15T06:39:39.879Z,0.34
2019-02-15T06:40:39.851Z,0.36
2019-02-15T06:41:40.046Z,0.41
2019-02-15T06:43:40.037Z,0.23
2019-02-15T06:45:40.071Z,0.36
2019-02-15T06:46:39.838Z,0.32
2019-02-15T06:47:39.796Z,0.29
2019-02-15T06:48:39.794Z,0.34
2019-02-15T06:49:39.797Z,0.32
2019-02-15T06:50:39.790Z,0.31
2019-02-15T06:51:40.008Z,0.29
2019-02-15T06:52:40.374Z,0.39
2019-02-15T06:53:39.771Z,0.43
2019-02-15T06:54:39.761Z,0.44
2019-02-15T06:55:40.161Z,0.47
2019-02-15T06:56:40.045Z,0.37
2019-02-15T06:57:41.368Z,0.44
2019-02-15T06:58:45.506Z,0.34
2019-02-15T06:59:39.704Z,0.34
2019-02-15T07:01:39.905Z,0.28
2019-02-15T07:02:39.906Z,0.28
2019-02-15T07:04:39.686Z,0.40
2019-02-15T07:05:39.704Z,0.40
2019-02-15T07:06:39.887Z,0.44
2019-02-15T07:07:39.671Z,0.49
2019-02-15T07:08:40.072Z,0.44
2019-02-15T07:09:39.846Z,0.46
2019-02-15T07:10:40.245Z,0.50
2019-02-15T07:11:39.646Z,0.49
2019-02-15T07:12:39.852Z,0.44
2019-02-15T07:13:39.640Z,0.49
2019-02-15T07:14:39.821Z,0.46
2019-02-15T07:15:39.800Z,0.47
2019-02-15T07:16:39.605Z,0.47
2019-02-15T07:17:40.078Z,0.43
2019-02-15T07:18:39.593Z,0.40
2019-02-15T07:19:39.770Z,0.46
2019-02-15T07:20:39.567Z,0.52
2019-02-15T07:21:39.787Z,0.44
2019-02-15T07:22:39.556Z,0.52
2019-02-15T07:23:39.955Z,0.58
2019-02-15T07:24:40.345Z,0.55
2019-02-15T07:27:39.512Z,0.59
2019-02-15T07:28:40.430Z,0.58
2019-02-15T07:29:39.714Z,0.60
2019-02-15T07:30:39.807Z,0.56
2019-02-15T07:31:39.696Z,0.70
2019-02-15T07:32:39.487Z,0.73
2019-02-15T07:33:39.859Z,0.87
2019-02-15T07:34:39.470Z,0.78
2019-02-15T07:35:40.069Z,0.84
2019-02-15T07:37:39.456Z,0.91
2019-02-15T07:38:39.662Z,0.99
2019-02-15T07:39:39.664Z,0.99
2019-02-15T07:40:40.437Z,1.12
2019-02-15T07:41:39.843Z,1.13
2019-02-15T07:43:40.111Z,1.26
2019-02-15T07:44:39.604Z,1.28
2019-02-15T07:45:42.803Z,1.22
2019-02-15T07:46:39.584Z,1.34
2019-02-15T07:47:39.382Z,1.35
2019-02-15T07:48:39.550Z,1.37
2019-02-15T07:50:39.354Z,1.40
2019-02-15T07:51:40.056Z,1.42
2019-02-15T07:52:39.550Z,1.50
2019-02-15T07:53:39.334Z,1.48
2019-02-15T07:54:40.140Z,1.58
2019-02-15T07:55:39.737Z,1.62
2019-02-15T07:56:39.522Z,1.60
2019-02-15T07:57:39.309Z,1.71
2019-02-15T07:59:39.505Z,1.80
2019-02-15T08:01:39.307Z,1.91
2019-02-15T08:02:39.269Z,1.84
2019-02-15T08:03:39.290Z,2.08
2019-02-15T08:05:39.245Z,2.08
2019-02-15T08:07:39.256Z,2.24
2019-02-15T08:08:39.728Z,2.29
2019-02-15T08:10:40.031Z,2.38
2019-02-15T08:12:39.401Z,2.51
2019-02-15T08:13:39.193Z,2.61
2019-02-15T08:14:39.390Z,2.74
2019-02-15T08:16:39.178Z,2.86
2019-02-15T08:17:39.177Z,2.93
2019-02-15T08:18:39.363Z,2.98
2019-02-15T08:19:39.171Z,3.07
2019-02-15T08:22:39.758Z,3.29
2019-02-15T08:23:39.137Z,3.41
2019-02-15T08:25:39.334Z,3.58
2019-02-15T08:26:39.115Z,3.68
2019-02-15T08:27:39.327Z,3.66
2019-02-15T08:28:39.106Z,3.77
2019-02-15T08:29:39.397Z,3.95
2019-02-15T08:30:39.306Z,4.14
2019-02-15T08:33:39.470Z,4.56
2019-02-15T08:34:39.058Z,4.74
2019-02-15T08:35:39.063Z,4.82
2019-02-15T08:36:39.257Z,4.89
2019-02-15T08:37:39.553Z,4.97
2019-02-15T08:38:39.047Z,5.00
2019-02-15T08:40:39.047Z,5.07
2019-02-15T08:41:39.020Z,5.11
2019-02-15T08:43:39.206Z,5.25
2019-02-15T08:44:39.011Z,5.20
2019-02-15T08:45:39.396Z,5.26
2019-02-15T08:46:38.992Z,5.59
2019-02-15T08:48:45.927Z,5.62
2019-02-15T08:49:39.389Z,5.65
2019-02-15T08:51:39.362Z,5.83
2019-02-15T08:54:39.146Z,6.20
2019-02-15T08:55:39.400Z,6.19
2019-02-15T08:56:39.131Z,6.33
2019-02-15T08:57:39.651Z,6.57
2019-02-15T08:58:39.147Z,6.87
2019-02-15T08:59:39.130Z,6.96
2019-02-15T09:01:39.128Z,6.84
2019-02-15T09:02:38.891Z,7.17
2019-02-15T09:03:38.893Z,7.07
2019-02-15T09:04:38.901Z,7.25
2019-02-15T09:06:39.101Z,8.06
2019-02-15T09:08:38.868Z,8.63
2019-02-15T09:09:39.387Z,8.87
2019-02-15T09:10:39.068Z,9.37
2019-02-15T09:11:38.861Z,9.32
2019-02-15T09:12:39.048Z,9.66
2019-02-15T09:13:39.065Z,9.48
2019-02-15T09:14:39.352Z,9.47
2019-02-15T09:15:39.446Z,9.50
2019-02-15T09:16:38.830Z,9.69
2019-02-15T09:18:38.826Z,10.22
2019-02-15T09:20:39.119Z,10.49
2019-02-15T09:21:38.807Z,10.79
2019-02-15T09:22:39.401Z,10.97
2019-02-15T09:23:39.428Z,11.08
2019-02-15T09:24:38.784Z,11.02
2019-02-15T09:27:38.978Z,11.15
2019-02-15T09:28:38.783Z,11.17
2019-02-15T09:31:38.974Z,11.35
2019-02-15T09:32:38.757Z,11.45
2019-02-15T09:33:38.951Z,11.44
2019-02-15T09:34:39.655Z,11.41
2019-02-15T09:35:39.152Z,11.43
2019-02-15T09:38:39.454Z,11.81
2019-02-15T09:40:38.748Z,11.80
2019-02-15T09:43:38.696Z,11.81
2019-02-15T09:45:38.683Z,11.90
2019-02-15T09:46:38.879Z,11.90
2019-02-15T09:47:38.682Z,11.94
2019-02-15T09:48:39.221Z,12.00
2019-02-15T09:49:38.895Z,11.84
2019-02-15T09:50:38.686Z,11.97
2019-02-15T09:52:38.664Z,11.88
2019-02-15T09:53:39.181Z,11.95
2019-02-15T09:54:39.088Z,11.87
2019-02-15T09:55:39.168Z,11.88
2019-02-15T09:57:38.656Z,11.88
2019-02-15T09:59:38.860Z,12.13
2019-02-15T10:01:38.835Z,12.43
2019-02-15T10:02:39.531Z,12.61
2019-02-15T10:03:38.634Z,12.57
2019-02-15T10:04:38.811Z,12.62
2019-02-15T10:05:39.218Z,12.62
2019-02-15T10:06:38.920Z,12.62
2019-02-15T10:07:39.616Z,12.64
2019-02-15T10:08:38.622Z,12.67
2019-02-15T10:11:38.794Z,12.80
2019-02-15T10:12:38.795Z,12.82
2019-02-15T10:16:38.575Z,12.85
2019-02-15T10:17:39.198Z,12.95
2019-02-15T10:19:38.557Z,12.65
2019-02-15T10:21:38.563Z,12.86
2019-02-15T10:24:38.555Z,12.76
2019-02-15T10:25:38.855Z,12.80
2019-02-15T10:26:38.721Z,12.85
2019-02-15T10:27:38.530Z,12.82
2019-02-15T10:28:38.534Z,13.00
2019-02-15T10:29:38.535Z,13.09
2019-02-15T10:30:38.554Z,13.09
2019-02-15T10:31:38.526Z,13.16
2019-02-15T10:32:38.918Z,13.08
2019-02-15T10:33:38.543Z,13.19
2019-02-15T10:34:38.522Z,13.18
2019-02-15T10:36:38.504Z,13.38
2019-02-15T10:37:38.896Z,13.33
2019-02-15T10:38:38.507Z,13.27
2019-02-15T10:39:38.520Z,13.27
2019-02-15T10:40:38.719Z,13.33
2019-02-15T10:41:38.507Z,13.44
2019-02-15T10:43:39.414Z,13.28
2019-02-15T10:44:38.938Z,13.33
2019-02-15T10:45:38.683Z,13.52
2019-02-15T10:46:39.186Z,13.57
2019-02-15T10:47:38.473Z,13.62
2019-02-15T10:48:38.477Z,13.77
2019-02-15T10:49:39.374Z,13.71
2019-02-15T10:52:38.514Z,13.63
2019-02-15T10:53:38.679Z,13.68
2019-02-15T10:54:38.665Z,13.78
2019-02-15T10:56:38.859Z,13.79
2019-02-15T10:57:38.438Z,13.81
2019-02-15T10:58:38.442Z,13.89
2019-02-15T10:59:38.624Z,13.92
2019-02-15T11:00:38.452Z,13.93
2019-02-15T11:01:38.448Z,13.92
2019-02-15T11:02:38.636Z,13.99
2019-02-15T11:03:38.422Z,14.03
2019-02-15T11:04:38.689Z,14.11
2019-02-15T11:05:38.436Z,14.04
2019-02-15T11:06:38.420Z,14.04
2019-02-15T11:07:38.419Z,14.11
2019-02-15T11:08:38.400Z,14.17
2019-02-15T11:09:38.602Z,14.17
2019-02-15T11:10:38.394Z,14.23
2019-02-15T11:11:38.407Z,14.12
2019-02-15T11:12:38.601Z,14.15
2019-02-15T11:13:38.409Z,14.15
2019-02-15T11:14:38.404Z,14.23
2019-02-15T11:15:38.383Z,14.29
2019-02-15T11:16:46.812Z,14.22
2019-02-15T11:17:38.580Z,14.25
2019-02-15T11:18:38.585Z,14.28
2019-02-15T11:19:38.356Z,14.28
2019-02-15T11:20:38.562Z,14.33
2019-02-15T11:21:38.355Z,14.35
2019-02-15T11:22:38.362Z,14.36
2019-02-15T11:23:38.345Z,14.40
2019-02-15T11:24:38.345Z,14.44
2019-02-15T11:25:38.355Z,14.40
2019-02-15T11:26:38.559Z,14.35
2019-02-15T11:27:38.562Z,14.41
2019-02-15T11:28:38.333Z,14.48
2019-02-15T11:29:38.345Z,14.53
2019-02-15T11:30:38.313Z,14.45
2019-02-15T11:31:38.321Z,14.50
2019-02-15T11:32:38.327Z,14.45
2019-02-15T11:33:38.305Z,14.23
2019-02-15T11:34:38.301Z,14.28
2019-02-15T11:35:38.308Z,14.28
2019-02-15T11:36:38.310Z,14.30
2019-02-15T11:37:38.493Z,14.40
2019-02-15T11:38:38.283Z,14.45
2019-02-15T11:39:38.491Z,14.45
2019-02-15T11:40:38.278Z,14.50
2019-02-15T11:41:38.469Z,14.55
2019-02-15T11:42:38.477Z,14.65
2019-02-15T11:43:38.287Z,14.69
2019-02-15T11:44:38.257Z,14.78
2019-02-15T11:45:38.255Z,14.82
2019-02-15T11:46:38.450Z,14.72
2019-02-15T11:47:38.247Z,14.78
2019-02-15T11:48:38.261Z,14.73
2019-02-15T11:49:38.241Z,14.79
2019-02-15T11:50:38.237Z,14.92
2019-02-15T11:51:38.247Z,14.86
2019-02-15T11:52:38.222Z,14.82
2019-02-15T11:53:38.219Z,14.73
2019-02-15T11:54:38.222Z,14.66
2019-02-15T11:55:38.410Z,14.73
2019-02-15T11:56:38.222Z,14.65
2019-02-15T11:57:38.212Z,14.72
2019-02-15T11:58:38.435Z,14.69
2019-02-15T11:59:38.413Z,14.82
2019-02-15T12:00:38.195Z,14.78
2019-02-15T12:01:38.204Z,14.73
2019-02-15T12:02:38.186Z,14.88
2019-02-15T12:03:38.184Z,14.86
2019-02-15T12:04:38.379Z,14.97
2019-02-15T12:05:38.199Z,14.81
2019-02-15T12:06:38.176Z,14.79
2019-02-15T12:07:38.177Z,14.81
2019-02-15T12:08:38.363Z,14.89
2019-02-15T12:09:38.149Z,14.85
2019-02-15T12:10:38.151Z,14.94
2019-02-15T12:11:38.154Z,14.91
2019-02-15T12:12:38.147Z,14.81
2019-02-15T12:13:38.152Z,14.86
2019-02-15T12:14:38.143Z,14.89
2019-02-15T12:15:38.332Z,14.78
2019-02-15T12:16:38.726Z,14.79
2019-02-15T12:17:38.141Z,14.63
2019-02-15T12:18:38.113Z,14.53
2019-02-15T12:19:38.112Z,14.43
2019-02-15T12:20:38.120Z,14.44
2019-02-15T12:21:38.133Z,14.33
2019-02-15T12:22:38.100Z,14.53
2019-02-15T12:23:38.313Z,14.51
2019-02-15T12:24:38.092Z,14.63
2019-02-15T12:25:38.308Z,14.77
2019-02-15T12:26:38.090Z,14.84
2019-02-15T12:27:38.097Z,14.82
2019-02-15T12:28:38.286Z,14.96
2019-02-15T12:29:38.308Z,15.04
2019-02-15T12:30:38.114Z,15.03
2019-02-15T12:31:38.071Z,15.03
2019-02-15T12:32:38.063Z,14.97
2019-02-15T12:33:38.267Z,14.88
2019-02-15T12:34:38.066Z,14.91
2019-02-15T12:35:38.053Z,14.94
2019-02-15T12:36:38.059Z,14.92
2019-02-15T12:37:38.038Z,14.97
2019-02-15T12:38:38.046Z,15.04
2019-02-15T12:39:38.048Z,14.97
2019-02-15T12:40:38.055Z,14.96
2019-02-15T12:41:38.228Z,14.94
2019-02-15T12:42:38.092Z,14.92
2019-02-15T12:43:38.013Z,14.99
2019-02-15T12:44:38.027Z,14.99
2019-02-15T12:45:38.022Z,15.04
2019-02-15T12:46:38.018Z,15.14
2019-02-15T12:47:38.206Z,15.21
2019-02-15T12:48:38.076Z,15.09
2019-02-15T12:49:37.991Z,15.14
2019-02-15T12:50:38.011Z,15.17
2019-02-15T12:51:37.989Z,15.42
2019-02-15T12:52:37.979Z,15.44
2019-02-15T12:53:38.184Z,15.54
2019-02-15T12:54:37.970Z,15.47
2019-02-15T12:55:37.971Z,15.42
2019-02-15T12:56:37.966Z,15.40
2019-02-15T12:57:38.175Z,15.27
2019-02-15T12:58:37.961Z,15.31
2019-02-15T12:59:38.160Z,15.24
2019-02-15T13:00:37.951Z,15.19
2019-02-15T13:01:37.943Z,15.03
2019-02-15T13:02:37.954Z,15.00
2019-02-15T13:03:37.937Z,15.25
2019-02-15T13:04:37.956Z,15.27
2019-02-15T13:05:37.941Z,15.22
2019-02-15T13:06:38.138Z,15.22
2019-02-15T13:07:37.924Z,15.00
2019-02-15T13:08:38.124Z,15.24
2019-02-15T13:09:37.933Z,15.25
2019-02-15T13:10:37.914Z,15.22
2019-02-15T13:11:37.925Z,15.17
2019-02-15T13:12:37.913Z,15.15
2019-02-15T13:13:37.916Z,15.19
2019-02-15T13:14:37.917Z,15.31
2019-02-15T13:15:38.097Z,15.22
2019-02-15T13:16:37.907Z,15.28
2019-02-15T13:17:37.942Z,15.33
2019-02-15T13:18:37.895Z,15.29
2019-02-15T13:19:38.094Z,15.25
2019-02-15T13:20:38.083Z,15.10
2019-02-15T13:21:37.879Z,15.18
2019-02-15T13:22:38.088Z,15.15
2019-02-15T13:23:37.872Z,15.33
2019-02-15T13:24:37.861Z,15.31
2019-02-15T13:25:38.070Z,15.49
2019-02-15T13:26:37.868Z,15.40
2019-02-15T13:27:37.883Z,15.46
2019-02-15T13:28:37.870Z,15.47
2019-02-15T13:29:38.058Z,15.55
2019-02-15T13:30:37.860Z,15.68
2019-02-15T13:31:37.855Z,15.65
2019-02-15T13:32:37.841Z,15.59
2019-02-15T13:33:37.839Z,15.49
2019-02-15T13:34:37.853Z,15.40
2019-02-15T13:35:37.819Z,15.33
2019-02-15T13:36:37.819Z,15.27
2019-02-15T13:37:37.834Z,15.37
2019-02-15T13:38:37.816Z,15.47
2019-02-15T13:39:37.817Z,15.42
2019-02-15T13:40:38.009Z,15.42
2019-02-15T13:41:37.803Z,15.65
2019-02-15T13:42:37.981Z,15.79
2019-02-15T13:43:37.799Z,15.88
2019-02-15T13:44:37.812Z,15.92
2019-02-15T13:45:37.799Z,15.90
2019-02-15T13:46:37.802Z,15.88
2019-02-15T13:47:37.785Z,15.88
2019-02-15T13:48:37.985Z,15.98
2019-02-15T13:49:37.786Z,15.79
2019-02-15T13:50:37.786Z,15.73
2019-02-15T13:51:37.789Z,15.68
2019-02-15T13:52:37.768Z,15.72
2019-02-15T13:53:37.993Z,15.62
2019-02-15T13:54:38.555Z,15.65
2019-02-15T13:55:37.758Z,15.65
2019-02-15T13:56:37.756Z,15.75
2019-02-15T13:57:37.745Z,15.70
2019-02-15T13:58:37.744Z,15.64
2019-02-15T13:59:39.147Z,15.75
2019-02-15T14:00:37.966Z,15.75
2019-02-15T14:01:37.742Z,15.75
2019-02-15T14:02:37.747Z,15.75
2019-02-15T14:03:37.942Z,15.72
2019-02-15T14:04:37.721Z,15.58
2019-02-15T14:05:37.924Z,15.65
2019-02-15T14:06:37.933Z,15.52
2019-02-15T14:07:37.713Z,15.62
2019-02-15T14:08:37.716Z,15.52
2019-02-15T14:09:37.918Z,15.44
2019-02-15T14:10:37.902Z,15.36
2019-02-15T14:11:37.697Z,15.21
2019-02-15T14:12:37.693Z,15.04
2019-02-15T14:13:37.697Z,15.17
2019-02-15T14:14:37.686Z,15.28
2019-02-15T14:15:37.680Z,15.15
2019-02-15T14:16:37.678Z,15.07
2019-02-15T14:17:44.385Z,15.07
2019-02-15T14:18:37.679Z,14.99
2019-02-15T14:19:37.689Z,15.00
2019-02-15T14:20:37.677Z,14.92
2019-02-15T14:21:44.142Z,15.02
2019-02-15T14:22:37.682Z,15.07
2019-02-15T14:23:37.880Z,15.14
2019-02-15T14:24:37.660Z,15.07
2019-02-15T14:25:37.670Z,15.10
2019-02-15T14:26:37.658Z,15.51
2019-02-15T14:27:37.868Z,15.64
2019-02-15T14:28:37.645Z,15.51
2019-02-15T14:29:37.647Z,15.49
2019-02-15T14:30:37.666Z,15.37
2019-02-15T14:31:37.844Z,15.55
2019-02-15T14:32:37.642Z,15.70
2019-02-15T14:33:37.621Z,15.92
2019-02-15T14:34:37.821Z,15.97
2019-02-15T14:35:37.626Z,16.01
2019-02-15T14:36:37.610Z,15.90
2019-02-15T14:37:37.613Z,15.88
2019-02-15T14:38:37.619Z,15.73
2019-02-15T14:39:37.603Z,15.67
2019-02-15T14:40:37.598Z,15.54
2019-02-15T14:41:37.603Z,15.37
2019-02-15T14:42:37.591Z,15.28
2019-02-15T14:43:37.596Z,15.27
2019-02-15T14:44:37.583Z,15.37
2019-02-15T14:45:37.594Z,15.31
2019-02-15T14:46:37.609Z,15.43
2019-02-15T14:47:37.573Z,15.43
2019-02-15T14:48:37.581Z,15.51
2019-02-15T14:49:37.778Z,15.43
2019-02-15T14:50:37.564Z,15.40
2019-02-15T14:51:37.574Z,15.57
2019-02-15T14:52:37.567Z,15.55
2019-02-15T14:53:37.757Z,15.39
2019-02-15T14:54:37.557Z,15.29
2019-02-15T14:55:37.766Z,15.22
2019-02-15T14:56:37.556Z,15.24
2019-02-15T14:57:37.741Z,15.09
2019-02-15T14:58:37.749Z,15.17
2019-02-15T14:59:38.977Z,15.19
2019-02-15T15:00:37.751Z,15.21
2019-02-15T15:01:37.531Z,15.42
2019-02-15T15:02:37.556Z,15.40
2019-02-15T15:03:37.536Z,15.35
2019-02-15T15:04:37.531Z,15.44
2019-02-15T15:05:37.546Z,15.49
2019-02-15T15:06:37.723Z,15.37
2019-02-15T15:07:37.510Z,15.31
2019-02-15T15:08:37.518Z,15.09
2019-02-15T15:09:37.535Z,15.24
2019-02-15T15:10:37.510Z,15.39
2019-02-15T15:11:37.517Z,15.51
2019-02-15T15:12:37.694Z,15.59
2019-02-15T15:13:37.500Z,15.46
2019-02-15T15:14:37.504Z,15.54
2019-02-15T15:15:37.705Z,15.52
2019-02-15T15:16:37.515Z,15.67
2019-02-15T15:17:37.707Z,15.64
2019-02-15T15:18:37.673Z,15.67
2019-02-15T15:19:37.472Z,15.75
2019-02-15T15:20:37.478Z,15.84
2019-02-15T15:21:37.463Z,15.73
2019-02-15T15:22:37.486Z,15.67
2019-02-15T15:23:37.463Z,15.68
2019-02-15T15:24:37.458Z,15.61
2019-02-15T15:25:37.447Z,15.49
2019-02-15T15:26:37.646Z,15.40
2019-02-15T15:27:37.462Z,15.29
2019-02-15T15:28:37.463Z,15.40
2019-02-15T15:29:37.638Z,15.37
2019-02-15T15:30:37.642Z,15.28
2019-02-15T15:31:37.646Z,15.03
2019-02-15T15:32:37.427Z,15.03
2019-02-15T15:33:37.426Z,15.17
2019-02-15T15:34:37.620Z,15.24
2019-02-15T15:35:37.416Z,15.19
2019-02-15T15:36:37.410Z,15.10
2019-02-15T15:37:37.409Z,15.10
2019-02-15T15:38:37.401Z,14.91
2019-02-15T15:39:37.398Z,15.10
2019-02-15T15:40:37.401Z,15.28
2019-02-15T15:41:39.450Z,15.31
2019-02-15T15:42:37.386Z,15.40
2019-02-15T15:43:37.389Z,15.36
2019-02-15T15:44:37.389Z,15.22
2019-02-15T15:45:37.376Z,15.17
2019-02-15T15:46:37.385Z,15.17
2019-02-15T15:47:37.368Z,15.22
2019-02-15T15:48:37.380Z,15.07